This is the latest recevied weather packets stored in our database for station/object WC4PEM-11. If no packets are shown the sender has not sent any weather packets the latest 10 day(s).
| Time | Temp. | Humidity | Pressure | Rain* | Wind** | Luminosity | Snow |
|---|---|---|---|---|---|---|---|
| 1787761399 | 32.78° C | 64% | 1018 hPa | 0 mm | - | - | - |
| 1787761099 | 32.78° C | 66% | 1017.9 hPa | 0 mm | - | - | - |
| 1787760799 | 32.22° C | 66% | 1017.8 hPa | 0 mm | - | - | - |
| 1787760659 | 32.22° C | 65% | 1017.9 hPa | 0 mm | - | - | - |
| 1787760499 | 32.22° C | 65% | 1017.9 hPa | 0 mm | - | - | - |
| 1787760199 | 32.78° C | 64% | 1017.7 hPa | 0 mm | - | - | - |
| 1787759899 | 32.78° C | 65% | 1017.8 hPa | 0 mm | - | - | - |
| 1787759599 | 32.22° C | 65% | 1017.9 hPa | 0 mm | - | - | - |
| 1787759299 | 32.22° C | 66% | 1017.8 hPa | 0 mm | - | - | - |
| 1787758999 | 31.67° C | 67% | 1017.8 hPa | 0 mm | - | - | - |
| 1787758771 | 31.67° C | 69% | 1017.7 hPa | 0 mm | - | - | - |
| 1787758699 | 31.67° C | 69% | 1017.7 hPa | 0 mm | - | - | - |
| 1787758512 | 31.67° C | 69% | 1017.7 hPa | 0 mm | - | - | - |
| 1787758399 | 31.67° C | 69% | 1017.7 hPa | 0 mm | - | - | - |
| 1787758099 | 31.67° C | 70% | 1017.7 hPa | 0 mm | - | - | - |
| 1787757799 | 31.67° C | 71% | 1017.7 hPa | 0 mm | - | - | - |
| 1787757499 | 31.67° C | 71% | 1017.6 hPa | 0 mm | - | - | - |
| 1787757199 | 31.11° C | 71% | 1017.7 hPa | 0 mm | - | - | - |
| 1787756899 | 31.11° C | 73% | 1017.6 hPa | 0 mm | - | - | - |
| 1787756599 | 30.56° C | 75% | 1017.7 hPa | 0 mm | - | - | - |
| 1787756463 | 30.56° C | 76% | 1017.7 hPa | 0 mm | - | - | - |
| 1787756299 | 30.56° C | 76% | 1017.7 hPa | 0 mm | - | - | - |
| 1787755999 | 30.56° C | 76% | 1017.6 hPa | 0 mm | - | - | - |
| 1787755864 | 30° C | 76% | 1017.8 hPa | 0 mm | - | - | - |
| 1787755699 | 30° C | 76% | 1017.8 hPa | 0 mm | - | - | - |
* Rain latest hour (hover to see other rain measurements)
** Current wind speed in m/s (hover to see current wind gust speed)